createdAt,value
2023-12-29T00:02:54.864Z,68.03
2023-12-29T00:06:14.859Z,70.13
2023-12-29T00:09:47.608Z,76.43
2023-12-29T00:13:11.810Z,74.63
2023-12-29T00:16:32.860Z,73.10
2023-12-29T00:19:35.967Z,71.57
2023-12-29T00:22:41.637Z,69.57
2023-12-29T00:25:53.104Z,74.03
2023-12-29T00:29:00.544Z,73.07
2023-12-29T00:32:14.076Z,72.70
2023-12-29T00:35:30.236Z,70.53
2023-12-29T00:38:35.670Z,71.10
2023-12-29T00:41:52.109Z,66.45
2023-12-29T00:45:14.524Z,72.70
2023-12-29T00:48:17.974Z,73.13
2023-12-29T00:51:21.580Z,73.93
2023-12-29T00:54:30.146Z,73.78
2023-12-29T00:57:53.621Z,67.03
2023-12-29T01:01:19.696Z,73.37
2023-12-29T01:04:37.010Z,66.40
2023-12-29T01:07:52.855Z,68.85
2023-12-29T01:11:11.985Z,65.60
2023-12-29T01:14:22.056Z,72.03
2023-12-29T01:17:28.830Z,72.70
2023-12-29T01:20:32.458Z,74.93
2023-12-29T01:23:35.889Z,72.45
2023-12-29T01:26:45.496Z,64.47
2023-12-29T01:29:54.059Z,75.82
2023-12-29T01:33:17.602Z,69.57
2023-12-29T01:36:35.019Z,68.43
2023-12-29T01:39:38.282Z,66.15
2023-12-29T01:42:50.120Z,73.38
2023-12-29T01:45:58.238Z,67.95
2023-12-29T01:49:11.723Z,68.07
2023-12-29T01:52:33.528Z,67.90
2023-12-29T01:55:48.302Z,69.95
2023-12-29T01:59:14.947Z,67.63
2023-12-29T02:02:32.645Z,66.53
2023-12-29T02:05:47.856Z,66.90
2023-12-29T02:09:05.675Z,69.70
2023-12-29T02:12:26.434Z,67.93
2023-12-29T02:15:50.647Z,63.15
2023-12-29T02:18:58.718Z,75.45
2023-12-29T02:22:02.631Z,71.27
2023-12-29T02:25:20.305Z,70.30
2023-12-29T02:28:37.573Z,75.20
2023-12-29T02:31:44.947Z,69.25
2023-12-29T02:34:54.859Z,78.38
2023-12-29T02:38:00.203Z,71.60
2023-12-29T02:41:09.989Z,70.40
2023-12-29T02:44:28.870Z,72.50
2023-12-29T02:47:37.901Z,67.35
2023-12-29T02:50:41.760Z,68.40
2023-12-29T02:53:56.309Z,67.57
2023-12-29T02:57:12.385Z,71.20
2023-12-29T03:00:38.218Z,69.28
2023-12-29T03:03:56.176Z,67.95
2023-12-29T03:07:19.360Z,75.30
2023-12-29T03:10:42.275Z,69.60
2023-12-29T03:14:04.675Z,70.78
2023-12-29T03:17:23.306Z,72.45
2023-12-29T03:20:50.411Z,69.65
2023-12-29T03:24:09.254Z,63.42
2023-12-29T03:27:29.500Z,55.70
2023-12-29T03:30:38.336Z,59.22
2023-12-29T03:34:01.398Z,53.35
2023-12-29T03:37:24.307Z,54.70
2023-12-29T03:40:49.278Z,56.72
2023-12-29T03:44:15.612Z,51.47
2023-12-29T03:47:37.379Z,56.17
2023-12-29T03:50:41.722Z,55.75
2023-12-29T03:53:51.204Z,56.53
2023-12-29T03:56:55.440Z,51.95
2023-12-29T03:59:58.274Z,55.07
2023-12-29T04:03:02.212Z,55.47
2023-12-29T04:06:11.351Z,55.40
2023-12-29T04:09:21.914Z,55.42
2023-12-29T04:12:37.023Z,59.13
2023-12-29T04:16:00.284Z,60.70
2023-12-29T04:19:20.787Z,67.68
2023-12-29T04:22:45.235Z,70.05
2023-12-29T04:26:10.304Z,74.32
2023-12-29T04:29:25.122Z,88.43
2023-12-29T04:32:48.124Z,91.00
2023-12-29T04:36:13.128Z,93.53
2023-12-29T04:39:22.596Z,94.47
2023-12-29T04:42:26.815Z,94.05
2023-12-29T04:45:33.705Z,101.18
2023-12-29T04:48:43.532Z,92.40
2023-12-29T04:52:03.160Z,103.88
2023-12-29T04:55:07.927Z,109.57
2023-12-29T04:58:11.401Z,94.90
2023-12-29T05:01:28.135Z,105.15
2023-12-29T05:04:51.185Z,114.20
2023-12-29T05:08:00.934Z,124.85
2023-12-29T05:11:10.522Z,157.45
2023-12-29T05:14:21.410Z,117.10
2023-12-29T05:17:38.635Z,119.97
2023-12-29T05:21:03.223Z,99.67
2023-12-29T05:24:20.142Z,111.18
2023-12-29T05:27:37.506Z,120.75
2023-12-29T05:30:55.337Z,91.13
2023-12-29T05:34:19.958Z,95.40
2023-12-29T05:37:44.975Z,102.27
2023-12-29T05:40:54.846Z,105.50
2023-12-29T05:44:02.379Z,105.20
2023-12-29T05:47:10.981Z,100.15
2023-12-29T05:50:22.405Z,76.20
2023-12-29T05:53:25.651Z,77.90
2023-12-29T05:56:42.360Z,72.80
2023-12-29T05:59:59.979Z,85.60
2023-12-29T06:03:18.274Z,82.88
2023-12-29T06:06:42.079Z,75.40
2023-12-29T06:10:32.705Z,83.43
2023-12-29T06:13:37.425Z,92.53
2023-12-29T06:17:00.154Z,108.90
2023-12-29T06:20:22.218Z,107.03
2023-12-29T06:23:36.508Z,78.30
2023-12-29T06:26:55.941Z,78.60
2023-12-29T06:30:19.201Z,76.75
2023-12-29T06:33:34.884Z,78.75
2023-12-29T06:36:42.259Z,83.82
2023-12-29T06:39:46.457Z,83.50
2023-12-29T06:42:58.476Z,88.63
2023-12-29T06:46:21.868Z,89.65
2023-12-29T06:49:39.583Z,105.53
2023-12-29T06:53:05.879Z,87.55
2023-12-29T06:56:31.779Z,91.70
2023-12-29T07:00:00.492Z,111.43
2023-12-29T07:03:21.729Z,97.45
2023-12-29T07:06:31.650Z,81.05
2023-12-29T07:09:44.428Z,143.10
2023-12-29T07:12:49.368Z,123.88
2023-12-29T07:16:02.414Z,87.43
2023-12-29T07:19:09.947Z,91.57
2023-12-29T07:22:20.767Z,90.32
2023-12-29T07:25:24.196Z,74.93
2023-12-29T07:28:35.708Z,84.95
2023-12-29T07:32:01.669Z,86.60
2023-12-29T07:35:11.928Z,86.72
2023-12-29T07:38:28.736Z,93.05
2023-12-29T07:42:07.810Z,79.63
2023-12-29T07:45:26.170Z,95.95
2023-12-29T07:48:43.420Z,86.77
2023-12-29T07:52:08.738Z,101.05
2023-12-29T07:55:32.576Z,81.68
2023-12-29T07:58:44.830Z,92.93
2023-12-29T08:02:08.540Z,89.28
2023-12-29T08:05:26.416Z,84.63
2023-12-29T08:08:29.801Z,72.03
2023-12-29T08:11:33.318Z,81.07
2023-12-29T08:14:52.677Z,74.07
2023-12-29T08:18:22.544Z,78.47
2023-12-29T08:21:39.363Z,83.80
2023-12-29T08:25:02.630Z,80.28
2023-12-29T08:28:27.602Z,78.13
2023-12-29T08:31:42.302Z,86.85
2023-12-29T08:34:48.821Z,74.72
2023-12-29T08:38:02.860Z,70.20
2023-12-29T08:41:23.619Z,76.68
2023-12-29T08:44:44.707Z,74.40
2023-12-29T08:48:05.544Z,75.88
2023-12-29T08:51:10.096Z,77.07
2023-12-29T08:54:20.975Z,73.03
2023-12-29T08:57:25.473Z,77.13
2023-12-29T09:00:33.219Z,75.20
2023-12-29T09:03:40.439Z,69.70
2023-12-29T09:06:57.548Z,72.82
2023-12-29T09:10:19.560Z,73.27
2023-12-29T09:13:27.729Z,72.38
2023-12-29T09:16:31.727Z,67.53
2023-12-29T09:20:04.345Z,64.68
2023-12-29T09:23:21.378Z,65.18
2023-12-29T09:26:37.591Z,66.50
2023-12-29T09:29:58.277Z,61.20
2023-12-29T09:33:08.440Z,65.20
2023-12-29T09:36:35.380Z,68.65
2023-12-29T09:39:55.551Z,66.78
2023-12-29T09:43:13.304Z,62.60
2023-12-29T09:46:50.289Z,58.17
2023-12-29T09:50:11.381Z,63.10
2023-12-29T09:53:34.290Z,59.92
2023-12-29T09:56:39.471Z,64.38
2023-12-29T09:59:54.067Z,64.43
2023-12-29T10:03:05.245Z,62.13
2023-12-29T10:06:22.916Z,61.65
2023-12-29T10:09:36.052Z,62.78
2023-12-29T10:12:56.712Z,61.97
2023-12-29T10:16:50.245Z,62.83
2023-12-29T10:20:31.331Z,62.30
2023-12-29T10:23:55.295Z,64.53
2023-12-29T10:27:15.301Z,67.70
2023-12-29T10:30:37.462Z,64.18
2023-12-29T10:33:58.281Z,65.80
2023-12-29T10:37:21.347Z,65.35
2023-12-29T10:40:41.105Z,66.20
2023-12-29T10:44:00.207Z,63.47
2023-12-29T10:47:16.400Z,65.32
2023-12-29T10:50:40.218Z,65.83
2023-12-29T10:54:00.225Z,68.32
2023-12-29T10:57:28.281Z,70.35
2023-12-29T11:00:45.273Z,67.88
2023-12-29T11:04:07.387Z,71.72
2023-12-29T11:07:27.111Z,67.53
2023-12-29T11:10:50.269Z,70.00
2023-12-29T11:14:08.101Z,72.32
2023-12-29T11:17:13.766Z,74.18
2023-12-29T11:20:21.762Z,76.07
2023-12-29T11:27:18.049Z,76.28
2023-12-29T11:30:28.963Z,75.53
2023-12-29T11:33:46.063Z,74.43
2023-12-29T11:37:14.780Z,76.90
2023-12-29T11:41:18.321Z,77.23
2023-12-29T11:44:29.372Z,76.50
2023-12-29T11:47:45.493Z,81.28
2023-12-29T11:50:50.127Z,78.40
2023-12-29T11:53:56.960Z,74.50
2023-12-29T11:57:04.518Z,79.10
2023-12-29T12:00:19.214Z,93.72
2023-12-29T12:03:42.089Z,78.40
2023-12-29T12:07:04.999Z,75.97
2023-12-29T12:10:39.986Z,73.32
2023-12-29T12:13:50.468Z,74.50
2023-12-29T12:17:12.085Z,71.45
2023-12-29T12:20:29.906Z,68.65
2023-12-29T12:23:49.023Z,73.57
2023-12-29T12:27:18.128Z,69.45
2023-12-29T12:30:22.324Z,66.47
2023-12-29T12:33:29.727Z,67.60
2023-12-29T12:36:50.795Z,69.00
2023-12-29T12:39:55.696Z,69.45
2023-12-29T12:43:19.644Z,71.93
2023-12-29T12:46:47.912Z,67.30
2023-12-29T12:50:02.942Z,69.05
2023-12-29T12:53:22.399Z,69.00
2023-12-29T12:56:45.996Z,68.93
2023-12-29T13:00:04.129Z,75.18
2023-12-29T13:03:24.837Z,69.70
2023-12-29T13:06:40.425Z,69.40
2023-12-29T13:09:52.126Z,66.70
2023-12-29T13:13:02.348Z,65.10
2023-12-29T13:16:09.728Z,66.40
2023-12-29T13:19:21.169Z,66.23
2023-12-29T13:22:34.636Z,64.15
2023-12-29T13:25:41.624Z,68.32
2023-12-29T13:28:49.089Z,71.22
2023-12-29T13:32:38.861Z,69.25
2023-12-29T13:36:07.866Z,68.03
2023-12-29T13:39:49.138Z,72.97
2023-12-29T13:43:03.583Z,68.30
2023-12-29T13:46:13.042Z,67.18
2023-12-29T13:49:27.141Z,68.47
2023-12-29T13:52:31.267Z,68.23
2023-12-29T13:55:44.641Z,66.47
2023-12-29T13:59:10.635Z,69.53
2023-12-29T14:02:32.919Z,62.33
2023-12-29T14:05:53.220Z,68.75
2023-12-29T14:09:07.904Z,72.73
2023-12-29T14:12:32.509Z,66.78
2023-12-29T14:15:54.542Z,69.80
2023-12-29T14:19:18.643Z,66.53
2023-12-29T14:22:32.692Z,69.95
2023-12-29T14:25:56.655Z,72.13
2023-12-29T14:29:12.855Z,70.28
2023-12-29T14:32:19.225Z,70.72
2023-12-29T14:35:33.654Z,77.78
2023-12-29T14:38:37.870Z,71.05
2023-12-29T14:42:01.504Z,69.50
2023-12-29T14:45:23.702Z,74.13
2023-12-29T14:48:41.187Z,70.03
2023-12-29T14:51:58.457Z,70.28
2023-12-29T14:55:27.092Z,75.72
2023-12-29T14:58:50.060Z,69.53
2023-12-29T15:02:09.216Z,69.28
2023-12-29T15:05:12.413Z,75.57
2023-12-29T15:08:16.809Z,76.10
2023-12-29T15:11:27.097Z,72.95
2023-12-29T15:14:54.455Z,76.00
2023-12-29T15:18:16.080Z,75.47
2023-12-29T15:21:19.590Z,72.95
2023-12-29T15:24:35.670Z,81.95
2023-12-29T15:27:59.475Z,82.20
2023-12-29T15:31:17.775Z,82.37
2023-12-29T15:34:22.670Z,76.35
2023-12-29T15:37:30.547Z,77.18
2023-12-29T15:40:33.846Z,81.68
2023-12-29T15:43:38.213Z,79.05
2023-12-29T15:46:54.064Z,75.27
2023-12-29T15:49:57.676Z,74.70
2023-12-29T15:53:17.471Z,78.38
2023-12-29T15:56:57.333Z,75.70
2023-12-29T16:00:26.200Z,75.43
2023-12-29T16:03:45.286Z,74.23
2023-12-29T16:07:09.233Z,73.75
2023-12-29T16:10:32.608Z,77.45
2023-12-29T16:13:54.143Z,73.90
2023-12-29T16:17:04.249Z,74.45
2023-12-29T16:20:07.912Z,74.50
2023-12-29T16:23:12.797Z,73.03
2023-12-29T16:26:42.865Z,76.93
2023-12-29T16:29:57.126Z,76.88
2023-12-29T16:33:20.502Z,75.88
2023-12-29T16:36:31.393Z,76.43
2023-12-29T16:39:48.679Z,76.10
2023-12-29T16:42:57.058Z,80.30
2023-12-29T16:46:00.831Z,82.60
2023-12-29T16:49:15.481Z,76.93
2023-12-29T16:52:31.323Z,82.73
2023-12-29T16:56:01.394Z,81.72
2023-12-29T16:59:23.439Z,80.78
2023-12-29T17:02:42.663Z,78.15
2023-12-29T17:06:01.438Z,77.00
2023-12-29T17:09:28.237Z,76.67
2023-12-29T17:12:49.257Z,79.20
2023-12-29T17:16:06.539Z,77.72
2023-12-29T17:19:26.439Z,80.68
2023-12-29T17:22:52.041Z,82.88
2023-12-29T17:26:15.734Z,83.50
2023-12-29T17:29:38.694Z,81.00
2023-12-29T17:33:01.623Z,87.68
2023-12-29T17:36:16.657Z,83.90
2023-12-29T17:39:42.187Z,86.80
2023-12-29T17:43:05.214Z,85.00
2023-12-29T17:46:15.495Z,86.68
2023-12-29T17:49:35.277Z,93.05
2023-12-29T17:53:01.423Z,89.88
2023-12-29T17:56:09.015Z,82.88
2023-12-29T17:59:16.622Z,81.27
2023-12-29T18:02:37.834Z,84.35
2023-12-29T18:05:59.802Z,83.55
2023-12-29T18:09:14.742Z,81.10
2023-12-29T18:12:38.080Z,86.60
2023-12-29T18:16:08.077Z,93.70
2023-12-29T18:19:27.804Z,87.78
2023-12-29T18:22:35.533Z,89.90
2023-12-29T18:25:44.936Z,79.85
2023-12-29T18:28:48.396Z,88.45
2023-12-29T18:32:17.832Z,88.43
2023-12-29T18:35:17.064Z,81.95
2023-12-29T18:38:35.884Z,100.70
2023-12-29T18:41:52.237Z,88.55
2023-12-29T18:45:09.063Z,88.47
2023-12-29T18:48:38.600Z,90.17
2023-12-29T18:52:00.038Z,95.78
2023-12-29T18:55:17.505Z,99.15
2023-12-29T18:58:40.940Z,97.80
2023-12-29T19:02:01.277Z,98.43
2023-12-29T19:05:20.847Z,99.37
2023-12-29T19:08:37.258Z,96.22
2023-12-29T19:12:05.946Z,93.85
2023-12-29T19:15:30.285Z,93.95
2023-12-29T19:18:36.836Z,94.93
2023-12-29T19:21:44.286Z,92.27
2023-12-29T19:24:50.011Z,91.05
2023-12-29T19:28:14.099Z,95.13
2023-12-29T19:31:18.955Z,89.30
2023-12-29T19:34:22.099Z,94.82
2023-12-29T19:37:27.161Z,89.20
2023-12-29T19:40:37.938Z,91.65
2023-12-29T19:43:48.312Z,94.65
2023-12-29T19:46:52.445Z,95.43
2023-12-29T19:49:59.636Z,100.30
2023-12-29T19:53:15.897Z,101.93
2023-12-29T19:56:33.924Z,99.47
2023-12-29T19:59:54.278Z,95.10
2023-12-29T20:03:11.805Z,90.38
2023-12-29T20:06:31.113Z,110.72
2023-12-29T20:09:51.967Z,96.90
2023-12-29T20:13:15.713Z,93.90
2023-12-29T20:16:24.732Z,98.90
2023-12-29T20:19:29.185Z,96.57
2023-12-29T20:22:52.445Z,103.28
2023-12-29T20:26:02.886Z,102.83
2023-12-29T20:29:10.108Z,101.10
2023-12-29T20:32:21.083Z,100.22
2023-12-29T20:35:32.410Z,94.70
2023-12-29T20:38:39.580Z,101.15
2023-12-29T20:41:46.305Z,100.67
2023-12-29T20:44:58.181Z,98.50
2023-12-29T20:48:15.762Z,96.82
2023-12-29T20:51:28.058Z,94.60
2023-12-29T20:54:51.744Z,83.55
2023-12-29T20:58:14.590Z,84.40
2023-12-29T21:01:36.753Z,83.35
2023-12-29T21:04:40.500Z,78.50
2023-12-29T21:08:03.663Z,79.25
2023-12-29T21:11:41.685Z,81.22
2023-12-29T21:15:07.631Z,82.33
2023-12-29T21:18:23.823Z,79.45
2023-12-29T21:21:53.523Z,78.88
2023-12-29T21:25:10.656Z,78.45
2023-12-29T21:28:14.038Z,74.72
2023-12-29T21:31:21.913Z,80.73
2023-12-29T21:34:29.630Z,76.75
2023-12-29T21:37:50.313Z,78.47
2023-12-29T21:41:12.203Z,84.88
2023-12-29T21:44:36.911Z,87.00
2023-12-29T21:47:55.441Z,89.17
2023-12-29T21:51:12.708Z,89.82
2023-12-29T21:54:34.451Z,96.00
2023-12-29T21:58:03.177Z,96.63
2023-12-29T22:01:51.141Z,86.72
2023-12-29T22:05:12.955Z,142.63
2023-12-29T22:08:20.737Z,90.60
2023-12-29T22:11:31.223Z,95.32
2023-12-29T22:14:41.164Z,92.15
2023-12-29T22:18:07.462Z,98.13
2023-12-29T22:21:19.605Z,87.10
2023-12-29T22:24:29.102Z,83.70
2023-12-29T22:27:34.140Z,92.70
2023-12-29T22:30:58.327Z,95.57
2023-12-29T22:34:26.235Z,85.97
2023-12-29T22:37:42.467Z,83.77
2023-12-29T22:41:08.510Z,82.32
2023-12-29T22:44:30.293Z,79.70
2023-12-29T22:47:53.371Z,83.13
2023-12-29T22:51:19.318Z,84.90
2023-12-29T22:54:22.551Z,87.73
2023-12-29T22:57:46.443Z,84.25
2023-12-29T23:01:21.317Z,82.32
2023-12-29T23:04:43.175Z,79.15
2023-12-29T23:08:00.377Z,80.68
2023-12-29T23:11:21.408Z,79.17
2023-12-29T23:14:50.239Z,80.50
2023-12-29T23:18:16.156Z,81.00
2023-12-29T23:21:19.898Z,75.82
2023-12-29T23:24:30.082Z,76.22
2023-12-29T23:27:46.478Z,75.47
2023-12-29T23:31:24.342Z,70.38
2023-12-29T23:35:14.055Z,76.72
2023-12-29T23:38:28.065Z,74.35
2023-12-29T23:41:48.358Z,69.63
2023-12-29T23:45:11.447Z,71.07
2023-12-29T23:48:28.886Z,71.78
2023-12-29T23:51:52.248Z,71.22
2023-12-29T23:55:09.378Z,69.95
2023-12-29T23:58:29.282Z,72.45
